createdAt,value
2022-12-01T00:01:46.336Z,97856.41
2022-12-01T00:04:13.103Z,97858.31
2022-12-01T00:06:39.908Z,97860.09
2022-12-01T00:09:25.190Z,97858.31
2022-12-01T00:11:51.985Z,97855.59
2022-12-01T00:14:18.754Z,97858.78
2022-12-01T00:16:45.686Z,97858.59
2022-12-01T00:19:12.528Z,97855.84
2022-12-01T00:21:39.383Z,97857.38
2022-12-01T00:24:07.968Z,97865.47
2022-12-01T00:26:34.688Z,97859.84
2022-12-01T00:29:01.428Z,97861.75
2022-12-01T00:31:28.321Z,97853.88
2022-12-01T00:33:55.260Z,97864.44
2022-12-01T00:36:22.014Z,97862.78
2022-12-01T00:38:51.526Z,97861.13
2022-12-01T00:41:18.606Z,97859.59
2022-12-01T00:43:45.569Z,97863.97
2022-12-01T00:46:12.957Z,97860.44
2022-12-01T00:48:39.696Z,97856.88
2022-12-01T00:51:06.414Z,97860.66
2022-12-01T00:53:33.043Z,97865.19
2022-12-01T00:55:59.690Z,97858.19
2022-12-01T00:58:26.464Z,97862.00
2022-12-01T01:01:02.576Z,97855.69
2022-12-01T01:03:29.721Z,97855.38
2022-12-01T01:05:56.619Z,97859.22
2022-12-01T01:08:23.435Z,97861.81
2022-12-01T01:10:50.159Z,97864.44
2022-12-01T01:13:16.995Z,97859.22
2022-12-01T01:15:43.687Z,97865.00
2022-12-01T01:18:10.934Z,97861.00
2022-12-01T01:20:37.686Z,97874.88
2022-12-01T01:23:04.413Z,97871.06
2022-12-01T01:25:32.030Z,97877.94
2022-12-01T01:27:58.836Z,97874.63
2022-12-01T01:30:25.562Z,97873.22
2022-12-01T01:32:52.583Z,97876.78
2022-12-01T01:35:19.379Z,97882.09
2022-12-01T01:37:46.147Z,97883.66
2022-12-01T01:40:13.119Z,97877.22
2022-12-01T01:42:39.932Z,97884.22
2022-12-01T01:45:11.746Z,97889.44
2022-12-01T01:47:39.368Z,97887.78
2022-12-01T01:50:12.511Z,97884.22
2022-12-01T01:52:40.977Z,97890.53
2022-12-01T01:55:08.210Z,97889.31
2022-12-01T01:57:35.254Z,97886.97
2022-12-01T02:00:07.792Z,97885.31
2022-12-01T02:02:40.961Z,97888.63
2022-12-01T02:05:11.379Z,97886.97
2022-12-01T02:07:38.504Z,97886.38
2022-12-01T02:10:05.769Z,97887.44
2022-12-01T02:12:51.238Z,97890.88
2022-12-01T02:43:47.564Z,97875.91
2022-12-01T02:46:16.303Z,97875.81
2022-12-01T02:48:44.117Z,97875.22
2022-12-01T02:51:12.338Z,97875.81
2022-12-01T02:53:39.247Z,97878.44
2022-12-01T02:56:07.156Z,97874.16
2022-12-01T03:01:29.783Z,97877.25
2022-12-01T03:03:59.757Z,97872.63
2022-12-01T03:06:34.759Z,97877.00
2022-12-01T03:09:09.125Z,97879.47
2022-12-01T03:11:38.163Z,97879.47
2022-12-01T03:14:15.835Z,97873.22
2022-12-01T03:16:52.563Z,97866.81
2022-12-01T03:19:27.100Z,97874.78
2022-12-01T03:21:59.546Z,97873.94
2022-12-01T03:24:26.577Z,97870.38
2022-12-01T03:26:57.188Z,97872.78
2022-12-01T03:29:25.844Z,97865.91
2022-12-01T03:31:54.215Z,97869.69
2022-12-01T03:34:31.110Z,97875.28
2022-12-01T03:36:59.716Z,97865.66
2022-12-01T03:39:27.332Z,97874.19
2022-12-01T03:41:55.247Z,97879.78
2022-12-01T03:44:23.114Z,97869.50
2022-12-01T03:47:09.716Z,97866.75
2022-12-01T03:49:38.558Z,97867.84
2022-12-01T03:55:25.034Z,97871.28
2022-12-01T03:57:55.859Z,97873.97
2022-12-01T04:00:24.228Z,97872.31
2022-12-01T04:02:58.663Z,97882.75
2022-12-01T04:05:31.757Z,97878.28
2022-12-01T04:10:45.533Z,97876.59
2022-12-01T04:28:49.166Z,97878.50
2022-12-01T04:31:18.383Z,97871.63
2022-12-01T04:47:01.403Z,97880.16
2022-12-01T04:49:28.328Z,97876.25
2022-12-01T04:51:56.848Z,97880.66
2022-12-01T04:57:10.884Z,97875.69
2022-12-01T04:59:37.840Z,97884.47
2022-12-01T05:02:04.862Z,97883.63
2022-12-01T05:04:37.269Z,97884.47
2022-12-01T05:07:06.564Z,97878.41
2022-12-01T05:09:35.373Z,97888.72
2022-12-01T05:12:02.439Z,97877.53
2022-12-01T05:14:29.654Z,97871.03
2022-12-01T05:17:00.119Z,97870.72
2022-12-01T05:19:46.456Z,97886.63
2022-12-01T05:22:18.437Z,97883.06
2022-12-01T05:27:49.950Z,97878.31
2022-12-01T05:30:24.354Z,97883.06
2022-12-01T05:32:55.526Z,97884.47
2022-12-01T05:38:08.244Z,97883.53
2022-12-01T05:40:38.477Z,97885.88
2022-12-01T05:43:05.420Z,97883.53
2022-12-01T05:45:32.513Z,97892.78
2022-12-01T05:48:01.761Z,97888.97
2022-12-01T05:50:31.437Z,97900.75
2022-12-01T05:52:58.454Z,97886.03
2022-12-01T05:55:25.557Z,97889.47
2022-12-01T05:57:55.484Z,97888.53
2022-12-01T06:00:26.596Z,97897.06
2022-12-01T06:02:53.968Z,97880.69
2022-12-01T06:05:20.992Z,97882.97
2022-12-01T06:07:47.736Z,97885.59
2022-12-01T06:10:15.095Z,97888.28
2022-12-01T06:12:41.852Z,97891.00
2022-12-01T06:15:08.849Z,97885.81
2022-12-01T06:17:39.909Z,97888.28
2022-12-01T06:20:08.156Z,97889.25
2022-12-01T06:22:35.179Z,97890.44
2022-12-01T06:25:02.009Z,97895.41
2022-12-01T06:27:28.657Z,97893.63
2022-12-01T06:29:57.377Z,97901.44
2022-12-01T06:32:24.302Z,97896.34
2022-12-01T06:34:50.990Z,97903.72
2022-12-01T06:37:18.033Z,97903.34
2022-12-01T06:39:44.799Z,97905.13
2022-12-01T06:42:12.373Z,97898.50
2022-12-01T06:52:53.986Z,97911.53
2022-12-01T06:55:24.683Z,97908.47
2022-12-01T06:57:53.849Z,97913.09
2022-12-01T07:00:22.327Z,97920.78
2022-12-01T07:02:49.469Z,97916.75
2022-12-01T07:05:20.258Z,97912.84
2022-12-01T07:07:52.720Z,97922.47
2022-12-01T07:10:25.095Z,97923.63
2022-12-01T07:12:57.299Z,97922.91
2022-12-01T07:15:25.143Z,97932.50
2022-12-01T07:21:07.442Z,97935.22
2022-12-01T07:26:21.348Z,97941.16
2022-12-01T07:32:40.658Z,97940.44
2022-12-01T07:35:10.038Z,97933.81
2022-12-01T07:43:48.289Z,97937.72
2022-12-01T07:46:23.111Z,97936.06
2022-12-01T07:51:32.002Z,97947.06
2022-12-01T07:54:01.940Z,97949.47
2022-12-01T07:56:36.170Z,97949.94
2022-12-01T07:59:03.016Z,97943.06
2022-12-01T08:01:32.159Z,97946.88
2022-12-01T08:04:02.481Z,97951.00
2022-12-01T08:06:35.855Z,97944.84
2022-12-01T08:11:47.156Z,97945.56
2022-12-01T08:14:14.132Z,97944.72
2022-12-01T08:19:35.365Z,97948.88
2022-12-01T08:30:01.948Z,97958.72
2022-12-01T08:32:29.849Z,97961.78
2022-12-01T08:37:44.210Z,97965.09
2022-12-01T08:40:12.152Z,97963.34
2022-12-01T08:42:39.132Z,97965.00
2022-12-01T08:47:50.369Z,97970.09
2022-12-01T08:50:17.784Z,97966.28
2022-12-01T08:55:29.958Z,97969.97
2022-12-01T08:57:56.744Z,97962.28
2022-12-01T09:00:23.479Z,97966.63
2022-12-01T09:02:50.341Z,97966.53
2022-12-01T09:05:17.053Z,97970.41
2022-12-01T09:07:45.853Z,97967.69
2022-12-01T09:12:53.974Z,97980.47
2022-12-01T09:15:21.429Z,97976.91
2022-12-01T09:17:48.229Z,97981.91
2022-12-01T09:23:01.487Z,97981.94
2022-12-01T09:25:28.639Z,97979.75
2022-12-01T09:27:55.464Z,97977.19
2022-12-01T09:30:22.368Z,97981.22
2022-12-01T09:38:16.560Z,97974.34
2022-12-01T09:40:43.507Z,97974.81
2022-12-01T09:43:16.705Z,97978.00
2022-12-01T09:45:47.704Z,97976.59
2022-12-01T09:48:20.683Z,97978.16
2022-12-01T09:50:47.470Z,97969.38
2022-12-01T09:53:16.060Z,97979.56
2022-12-01T09:55:49.836Z,97972.69
2022-12-01T09:58:21.168Z,97952.53
2022-12-01T10:00:49.412Z,97973.28
2022-12-01T10:03:25.409Z,97969.94
2022-12-01T10:06:26.138Z,97969.63
2022-12-01T10:08:44.788Z,97965.81
2022-12-01T10:11:30.390Z,97975.06
2022-12-01T10:13:59.373Z,97966.75
2022-12-01T10:16:32.387Z,97963.19
2022-12-01T10:19:02.217Z,97971.72
2022-12-01T10:21:35.100Z,97968.66
2022-12-01T10:24:23.855Z,97965.72
2022-12-01T10:26:52.646Z,97963.69
2022-12-01T10:29:31.221Z,97964.50
2022-12-01T10:32:02.540Z,97962.03
2022-12-01T10:34:30.265Z,97962.50
2022-12-01T10:36:57.238Z,97967.00
2022-12-01T10:39:27.066Z,97964.16
2022-12-01T10:41:53.783Z,97960.34
2022-12-01T10:44:20.790Z,97959.19
2022-12-01T10:46:47.653Z,97950.03
2022-12-01T10:49:15.360Z,97956.09
2022-12-01T10:51:53.120Z,97948.22
2022-12-01T10:54:20.087Z,97948.47
2022-12-01T10:56:48.067Z,97948.22
2022-12-01T10:59:25.996Z,97947.03
2022-12-01T11:01:53.091Z,97944.28
2022-12-01T11:04:22.248Z,97948.59
2022-12-01T11:06:50.064Z,97948.09
2022-12-01T11:09:28.464Z,97952.38
2022-12-01T11:11:59.363Z,97950.13
2022-12-01T11:14:45.630Z,97952.03
2022-12-01T11:17:16.743Z,97951.59
2022-12-01T11:19:43.848Z,97940.66
2022-12-01T11:22:20.083Z,97939.13
2022-12-01T11:24:52.937Z,97933.53
2022-12-01T11:27:26.634Z,97932.81
2022-12-01T11:29:55.500Z,97929.75
2022-12-01T11:32:23.740Z,97935.22
2022-12-01T11:35:01.772Z,97931.66
2022-12-01T11:37:30.547Z,97935.22
2022-12-01T11:39:58.462Z,97946.50
2022-12-01T11:42:30.927Z,97929.75
2022-12-01T11:45:03.862Z,97936.63
2022-12-01T11:47:30.767Z,97937.66
2022-12-01T11:49:58.910Z,97935.31
2022-12-01T11:52:36.705Z,97935.19
2022-12-01T11:57:48.899Z,97925.25
2022-12-01T12:00:16.333Z,97922.00
2022-12-01T12:02:48.461Z,97924.28
2022-12-01T12:05:18.435Z,97928.56
2022-12-01T12:08:08.142Z,97915.72
2022-12-01T12:10:42.257Z,97924.88
2022-12-01T12:16:09.395Z,97919.50
2022-12-01T12:18:55.984Z,97916.28
2022-12-01T12:21:31.243Z,97916.38
2022-12-01T12:24:08.554Z,97906.38
2022-12-01T12:26:35.566Z,97903.53
2022-12-01T12:29:25.677Z,97901.56
2022-12-01T12:32:05.190Z,97905.31
2022-12-01T12:34:34.894Z,97907.25
2022-12-01T12:37:16.563Z,97900.75
2022-12-01T12:39:59.933Z,97901.81
2022-12-01T12:42:35.896Z,97895.66
2022-12-01T12:45:06.506Z,97900.75
2022-12-01T12:47:40.252Z,97902.19
2022-12-01T12:50:28.252Z,97899.84
2022-12-01T12:55:40.498Z,97898.19
2022-12-01T12:58:15.058Z,97900.06
2022-12-01T13:00:44.386Z,97903.66
2022-12-01T13:03:25.137Z,97900.25
2022-12-01T13:05:57.983Z,97905.13
2022-12-01T13:08:27.329Z,97896.84
2022-12-01T13:10:57.511Z,97903.09
2022-12-01T13:13:40.873Z,97890.91
2022-12-01T13:16:26.770Z,97898.25
2022-12-01T13:18:59.685Z,97892.41
2022-12-01T13:21:26.620Z,97881.03
2022-12-01T13:23:53.597Z,97880.34
2022-12-01T13:26:20.951Z,97887.31
2022-12-01T13:28:49.636Z,97885.03
2022-12-01T13:31:16.732Z,97880.78
2022-12-01T13:34:02.446Z,97877.84
2022-12-01T13:36:46.133Z,97873.56
2022-12-01T13:39:36.815Z,97878.06
2022-12-01T13:42:08.083Z,97878.66
2022-12-01T13:44:41.893Z,97873.78
2022-12-01T13:47:11.814Z,97869.41
2022-12-01T13:49:42.730Z,97870.59
2022-12-01T13:52:21.726Z,97873.47
2022-12-01T13:55:08.015Z,97867.44
2022-12-01T13:57:36.591Z,97873.00
2022-12-01T14:00:09.478Z,97876.44
2022-12-01T14:02:36.824Z,97874.78
2022-12-01T14:05:33.171Z,97874.09
2022-12-01T14:08:00.049Z,97873.63
2022-12-01T14:10:32.929Z,97873.03
2022-12-01T14:13:00.636Z,97877.31
2022-12-01T14:15:30.547Z,97874.09
2022-12-01T14:18:01.886Z,97870.78
2022-12-01T14:20:28.819Z,97871.84
2022-12-01T14:23:07.869Z,97871.72
2022-12-01T14:25:34.785Z,97870.19
2022-12-01T14:28:04.555Z,97873.03
2022-12-01T14:30:41.072Z,97871.50
2022-12-01T14:33:27.201Z,97870.31
2022-12-01T14:35:58.401Z,97876.47
2022-12-01T14:38:25.427Z,97875.53
2022-12-01T14:40:52.149Z,97866.75
2022-12-01T14:43:37.465Z,97873.88
2022-12-01T14:48:51.253Z,97880.66
2022-12-01T14:51:30.363Z,97877.22
2022-12-01T14:53:59.882Z,97867.00
2022-12-01T14:56:30.284Z,97863.81
2022-12-01T14:59:00.571Z,97866.66
2022-12-01T15:01:35.158Z,97874.59
2022-12-01T15:04:04.638Z,97865.00
2022-12-01T15:06:33.129Z,97872.34
2022-12-01T15:09:34.044Z,97871.97
2022-12-01T15:12:05.805Z,97873.63
2022-12-01T15:14:41.350Z,97878.13
2022-12-01T15:17:09.804Z,97874.81
2022-12-01T15:19:43.668Z,97876.59
2022-12-01T15:22:10.416Z,97874.59
2022-12-01T15:24:37.308Z,97876.59
2022-12-01T15:27:08.181Z,97879.88
2022-12-01T15:29:44.147Z,97880.47
2022-12-01T15:32:14.554Z,97884.09
2022-12-01T15:34:44.626Z,97884.50
2022-12-01T15:37:16.847Z,97891.47
2022-12-01T15:39:53.649Z,97894.69
2022-12-01T15:42:30.459Z,97897.63
2022-12-01T15:45:17.464Z,97892.03
2022-12-01T15:47:44.326Z,97904.56
2022-12-01T15:50:32.284Z,97896.41
2022-12-01T15:53:02.445Z,97895.81
2022-12-01T15:55:32.660Z,97901.75
2022-12-01T15:58:00.135Z,97898.69
2022-12-01T16:00:27.244Z,97910.25
2022-12-01T16:02:56.174Z,97904.56
2022-12-01T16:05:30.541Z,97893.81
2022-12-01T16:08:13.927Z,97889.31
2022-12-01T16:10:44.925Z,97898.41
2022-12-01T16:13:44.373Z,97888.84
2022-12-01T16:16:30.027Z,97884.66
2022-12-01T16:18:59.941Z,97884.66
2022-12-01T16:21:30.074Z,97886.13
2022-12-01T16:24:05.964Z,97888.00
2022-12-01T16:26:37.054Z,97879.25
2022-12-01T16:29:05.062Z,97886.13
2022-12-01T16:31:52.656Z,97875.47
2022-12-01T16:34:45.267Z,97876.28
2022-12-01T16:37:13.248Z,97873.81
2022-12-01T16:39:44.064Z,97878.19
2022-12-01T16:42:27.894Z,97886.94
2022-12-01T16:45:04.102Z,97879.25
2022-12-01T16:47:36.567Z,97877.59
2022-12-01T16:50:04.495Z,97871.09
2022-12-01T16:52:44.270Z,97870.25
2022-12-01T16:55:25.571Z,97877.13
2022-12-01T16:57:56.918Z,97872.38
2022-12-01T17:03:17.065Z,97875.66
2022-12-01T17:05:46.443Z,97878.97
2022-12-01T17:08:14.119Z,97883.13
2022-12-01T17:10:43.689Z,97885.59
2022-12-01T17:15:57.058Z,97885.72
2022-12-01T17:18:25.320Z,97882.63
2022-12-01T17:21:03.024Z,97893.88
2022-12-01T17:23:33.207Z,97891.38
2022-12-01T17:26:01.169Z,97883.47
2022-12-01T17:28:31.677Z,97891.28
2022-12-01T17:33:55.495Z,97886.44
2022-12-01T17:36:23.681Z,97894.81
2022-12-01T17:38:52.521Z,97894.34
2022-12-01T17:41:26.467Z,97889.38
2022-12-01T17:46:37.605Z,97905.69
2022-12-01T17:49:17.189Z,97898.94
2022-12-01T17:51:47.762Z,97899.78
2022-12-01T17:54:17.663Z,97903.63
2022-12-01T17:56:47.319Z,97898.06
2022-12-01T17:59:17.330Z,97899.94
2022-12-01T18:01:54.462Z,97898.78
2022-12-01T18:04:23.005Z,97895.22
2022-12-01T18:06:54.343Z,97892.41
2022-12-01T18:09:22.969Z,97889.56
2022-12-01T18:11:54.214Z,97898.53
2022-12-01T18:14:28.957Z,97894.16
2022-12-01T18:16:58.925Z,97895.72
2022-12-01T18:19:35.609Z,97895.94
2022-12-01T18:22:07.162Z,97894.16
2022-12-01T18:24:34.147Z,97894.78
2022-12-01T18:27:01.087Z,97897.94
2022-12-01T18:29:29.000Z,97902.38
2022-12-01T18:31:56.624Z,97890.06
2022-12-01T18:34:24.509Z,97896.88
2022-12-01T18:36:51.978Z,97893.78
2022-12-01T18:39:18.947Z,97905.03
2022-12-01T18:41:46.184Z,97897.56
2022-12-01T18:44:13.221Z,97898.16
2022-12-01T18:46:40.238Z,97896.75
2022-12-01T18:49:09.167Z,97906.44
2022-12-01T18:51:37.267Z,97901.31
2022-12-01T18:54:04.688Z,97893.75
2022-12-01T18:56:31.703Z,97899.06
2022-12-01T18:59:00.015Z,97900.22
2022-12-01T19:01:28.773Z,97897.44
2022-12-01T19:03:56.639Z,97898.38
2022-12-01T19:06:23.870Z,97902.16
2022-12-01T19:08:51.645Z,97902.88
2022-12-01T19:11:19.234Z,97911.84
2022-12-01T19:13:46.540Z,97908.28
2022-12-01T19:16:14.787Z,97911.84
2022-12-01T19:18:42.311Z,97909.06
2022-12-01T19:21:10.501Z,97905.66
2022-12-01T19:23:37.504Z,97908.66
2022-12-01T19:26:07.743Z,97904.41
2022-12-01T19:28:35.949Z,97902.03
2022-12-01T19:33:51.439Z,97906.19
2022-12-01T19:36:19.358Z,97901.09
2022-12-01T19:38:48.726Z,97902.53
2022-12-01T19:41:15.681Z,97902.63
2022-12-01T19:43:45.503Z,97903.19
2022-12-01T19:46:13.990Z,97901.91
2022-12-01T19:48:40.998Z,97907.44
2022-12-01T19:51:08.397Z,97899.34
2022-12-01T19:53:35.658Z,97905.69
2022-12-01T19:56:04.313Z,97902.56
2022-12-01T19:58:34.466Z,97896.75
2022-12-01T20:01:04.932Z,97901.09
2022-12-01T20:03:32.398Z,97904.66
2022-12-01T20:06:03.022Z,97896.97
2022-12-01T20:08:35.057Z,97901.00
2022-12-01T20:11:04.751Z,97904.34
2022-12-01T20:13:35.846Z,97900.59
2022-12-01T20:16:03.834Z,97885.34
2022-12-01T20:18:31.580Z,97892.22
2022-12-01T20:21:09.233Z,97890.03
2022-12-01T20:23:36.921Z,97900.94
2022-12-01T20:30:00.285Z,97901.16
2022-12-01T20:32:27.246Z,97895.44
2022-12-01T20:34:54.112Z,97898.03
2022-12-01T20:37:20.864Z,97905.53
2022-12-01T20:39:49.209Z,97899.41
2022-12-01T20:42:18.946Z,97905.66
2022-12-01T20:47:36.874Z,97900.78
2022-12-01T20:50:06.995Z,97897.03
2022-12-01T20:52:34.780Z,97904.72
2022-12-01T20:55:01.690Z,97900.56
2022-12-01T20:57:28.655Z,97891.00
2022-12-01T20:59:56.710Z,97898.56
2022-12-01T21:02:24.383Z,97897.03
2022-12-01T21:04:55.093Z,97900.13
2022-12-01T21:07:25.318Z,97893.59
2022-12-01T21:09:52.818Z,97894.09
2022-12-01T21:12:38.261Z,97898.59
2022-12-01T21:15:11.222Z,97893.38
2022-12-01T21:17:39.765Z,97888.19
2022-12-01T21:20:07.538Z,97896.72
2022-12-01T21:22:35.443Z,97880.19
2022-12-01T21:25:03.784Z,97880.59
2022-12-01T21:30:25.146Z,97887.69
2022-12-01T21:32:51.966Z,97878.94
2022-12-01T21:35:33.204Z,97884.38
2022-12-01T21:38:08.085Z,97883.22
2022-12-01T21:40:53.735Z,97877.41
2022-12-01T21:43:25.557Z,97884.16
2022-12-01T21:45:56.332Z,97879.78
2022-12-01T21:48:27.319Z,97884.97
2022-12-01T21:51:01.564Z,97879.06
2022-12-01T21:53:33.544Z,97878.72
2022-12-01T21:56:00.566Z,97876.97
2022-12-01T21:58:31.192Z,97869.38
2022-12-01T22:00:58.804Z,97867.50
2022-12-01T22:03:28.511Z,97869.16
2022-12-01T22:06:29.479Z,97860.53
2022-12-01T22:11:27.787Z,97855.03
2022-12-01T22:14:13.348Z,97852.41
2022-12-01T22:16:43.145Z,97841.09
2022-12-01T22:22:16.084Z,97835.78
2022-12-01T22:24:42.984Z,97833.06
2022-12-01T22:30:14.627Z,97828.50
2022-12-01T22:32:46.183Z,97821.56
2022-12-01T22:46:59.465Z,97819.34
2022-12-01T22:49:42.718Z,97812.38
2022-12-01T22:52:24.737Z,97809.88
2022-12-01T22:54:56.453Z,97813.53
2022-12-01T22:57:47.423Z,97821.31
2022-12-01T23:00:15.545Z,97816.03
2022-12-01T23:02:42.701Z,97818.06
2022-12-01T23:05:18.639Z,97823.81
2022-12-01T23:07:46.322Z,97824.88
2022-12-01T23:10:18.358Z,97823.59
2022-12-01T23:12:46.588Z,97821.09
2022-12-01T23:15:21.511Z,97827.34
2022-12-01T23:17:48.595Z,97825.28
2022-12-01T23:20:34.545Z,97816.53
2022-12-01T23:28:35.718Z,97810.13
2022-12-01T23:36:17.322Z,97796.91
2022-12-01T23:38:45.233Z,97799.09
2022-12-01T23:41:25.487Z,97802.84
2022-12-01T23:46:42.642Z,97788.06
2022-12-01T23:51:55.214Z,97781.84
2022-12-01T23:54:24.688Z,97783.72
2022-12-01T23:56:56.153Z,97782.88
2022-12-01T23:59:23.308Z,97776.22
